Updated24/08/2019 3:51am 
 

Nearby Airport METAR Reports

 

KVSF - Springfield, Vermont, USA
Distance from station: WSW 8mi, 12km
Updated: 08/24/2019 3:06am
Few Clouds
Few Clouds
 Wind from calm
Wind: Calm
Temperature: 48°F , 9°C
Dew Point: 46°F , 8°C
Humidity: 94%
Barometer: 30.13 inHg , 1020.3 hPa
Clouds: Few Clouds
Visibility: 10 miles , 16 km
Cloud details: Few Clouds 200 ft
2019/08/24 07:06 KVSF 240706Z AUTO 00000KT 10SM FEW002 09/08 A3013 RMK AO2 T00940083
KLEB - Lebanon, New Hampshire, USA
Distance from station: N 18mi, 29km
Updated: 08/24/2019 2:53am
Clear
Clear
 Wind from calm
Wind: Calm
Temperature: 52°F , 11°C
Dew Point: 46°F , 8°C
Humidity: 82%
Barometer: 30.12 inHg , 1020 hPa
Clouds: Clear
Visibility: 10 miles , 16 km
2019/08/24 06:53 KLEB 240653Z AUTO 00000KT 10SM CLR 11/08 A3012 RMK AO2 SLP191 T01060083 TSNO
KRUT - Rutland State, Vermont, USA
Distance from station: WNW 31mi, 50km
Updated: 08/24/2019 2:56am
Clear
Clear
 Wind from SE
Wind: SE 6 mph , 9 km/h
Temperature: 50°F , 10°C
Wind Chill: 48°F , 9°C
Dew Point: 48°F , 9°C
Humidity: 94%
Barometer: 30.15 inHg , 1021 hPa
Clouds: Clear
Visibility: 10 miles , 16 km
2019/08/24 06:56 KRUT 240656Z AUTO 13005KT 10SM CLR 10/09 A3015 RMK AO2 SLP205 T01000089 $
 
KEEN - Keene/Dillant, New Hampshire, USA
Distance from station: S 34mi, 55km
Updated: 08/24/2019 3:50am
Mist, Clear
Mist, Clear
 Wind from calm
Wind: Calm
Temperature: 48°F , 9°C
Dew Point: 48°F , 9°C
Humidity: 100%
Barometer: 30.12 inHg , 1020 hPa
Summary: Mist
Clouds: Clear
Visibility: 1 3/4 miles , 2.8 km
2019/08/24 07:50 KEEN 240750Z AUTO 00000KT 1 3/4SM BR CLR 09/09 A3012 RMK AO2 $
K1P1 - Plymouth, New Hampshire, USA
Distance from station: NE 42mi, 67km
Updated: 08/24/2019 3:35am
Clear
Clear
 Wind from NW
Wind: NW 7 mph , 11 km/h
Temperature: 52°F , 11°C
Dew Point: 48°F , 9°C
Humidity: 88%
Barometer: 30.10 inHg , 1019.3 hPa
Clouds: Clear
Visibility: 10 miles , 16 km
2019/08/24 07:35 K1P1 240735Z AUTO 31006KT 10SM CLR 11/09 A3010 RMK AO2 T01100086
KAFN - Jaffrey, New Hampshire, USA
Distance from station: SSE 44mi, 70km
Updated: 08/24/2019 2:52am
Clear
Clear
 Wind from calm
Wind: Calm
Temperature: 50°F , 10°C
Dew Point: 46°F , 8°C
Humidity: 88%
Barometer: 30.13 inHg , 1020.3 hPa
Clouds: Clear
Visibility: 10 miles , 16 km
2019/08/24 06:52 KAFN 240652Z AUTO 00000KT 10SM CLR 10/08 A3013 RMK AO2 SLP205 T01000083
 
KCON - Concord, New Hampshire, USA
Distance from station: ESE 45mi, 73km
Updated: 08/24/2019 2:51am
Clear
Clear
 Wind from calm
Wind: Calm
Temperature: 50°F , 10°C
Dew Point: 48°F , 9°C
Humidity: 94%
Barometer: 30.09 inHg , 1019 hPa
Clouds: Clear
Visibility: 10 miles , 16 km
2019/08/24 06:51 KCON 240651Z AUTO 00000KT 10SM CLR 10/09 A3009 RMK AO2 SLP190 T01000089
KLCI - Laconia Muni, New Hampshire, USA
Distance from station: ENE 49mi, 80km
Updated: 08/24/2019 2:56am
Clear
Clear
 Wind from calm
Wind: Calm
Temperature: 52°F , 11°C
Dew Point: 48°F , 9°C
Humidity: 88%
Barometer: 30.10 inHg , 1019.3 hPa
Clouds: Clear
Visibility: 10 miles , 16 km
2019/08/24 06:56 KLCI 240656Z AUTO 00000KT 10SM CLR 11/09 A3010 RMK AO2 SLP192 T01110094
KDDH - Bennington, Vermont, USA
Distance from station: SW 55mi, 89km
Updated: 08/24/2019 2:54am
Clear
Clear
 Wind from calm
Wind: Calm
Temperature: 48°F , 9°C
Dew Point: 46°F , 8°C
Humidity: 94%
Barometer: 30.14 inHg , 1020.7 hPa
Clouds: Clear
Visibility: 10 miles , 16 km
2019/08/24 06:54 KDDH 240654Z AUTO 00000KT 10SM CLR 09/08 A3014 RMK AO2 SLP204 T00940083 $
 
K6B0 - Middlebury, Vermont, USA
Distance from station: NW 56mi, 90km
Updated: 08/24/2019 3:36am
Mostly cloudy
Mostly cloudy
 Wind from calm
Wind: Calm
Temperature: 50°F , 10°C
Dew Point: 48°F , 9°C
Humidity: 94%
Barometer: 30.15 inHg , 1021 hPa
Clouds: Mostly cloudy
Visibility: 10 miles , 16 km
Cloud details: Partly cloudy 2400 ft
Mostly cloudy 4000 ft
2019/08/24 07:36 K6B0 240736Z AUTO 00000KT 10SM SCT024 BKN040 10/09 A3015 RMK AO2 T00950091
KMHT - Manchester, New Hampshire, USA
Distance from station: ESE 56mi, 90km
Updated: 08/24/2019 2:53am
Clear
Clear
 Wind from NNW
Wind: NNW 6 mph , 9 km/h
Temperature: 59°F , 15°C
Dew Point: 50°F , 10°C
Humidity: 72%
Barometer: 30.07 inHg , 1018.3 hPa
Clouds: Clear
Visibility: 10 miles , 16 km
2019/08/24 06:53 KMHT 240653Z 34005KT 10SM CLR 15/10 A3007 RMK AO2 SLP194 T01500100
KORE - Orange, Massachusetts, USA
Distance from station: S 56mi, 90km
Updated: 08/24/2019 2:52am
Clear
Clear
 Wind from calm
Wind: Calm
Temperature: 52°F , 11°C
Dew Point: 48°F , 9°C
Humidity: 88%
Barometer: 30.12 inHg , 1020 hPa
Clouds: Clear
Visibility: 10 miles , 16 km
2019/08/24 06:52 KORE 240652Z AUTO 00000KT 10SM CLR 11/09 A3012 RMK AO2 SLP199 T01060089
 
KMPV - Montpelier/Barre, Vermont, USA
Distance from station: N 58mi, 93km
Updated: 08/24/2019 2:51am
Clear
Clear
 Wind from calm
Wind: Calm
Temperature: 46°F , 8°C
Dew Point: 45°F , 7°C
Humidity: 93%
Barometer: 30.17 inHg , 1021.7 hPa
Clouds: Clear
Visibility: 10 miles , 16 km
2019/08/24 06:51 KMPV 240651Z AUTO 00000KT 10SM CLR 08/07 A3017 RMK AO2 SLP219 T00830072
KASH - Nashua/Boire Fld, New Hampshire, USA
Distance from station: SE 59mi, 95km
Updated: 08/24/2019 2:56am
Clear
Clear
 Wind from WNW
Wind: WNW 6 mph , 9 km/h
Temperature: 55°F , 13°C
Dew Point: 52°F , 11°C
Humidity: 88%
Barometer: 30.09 inHg , 1019 hPa
Clouds: Clear
Visibility: 10 miles , 16 km
2019/08/24 06:56 KASH 240656Z AUTO 30005KT 10SM CLR 13/11 A3009 RMK AO2 SLP194 T01330111
KAQW - North Adams, Massachusetts, USA
Distance from station: SW 62mi, 99km
Updated: 08/24/2019 3:45am
Fog, Overcast
Fog, Overcast
 Wind from calm
Wind: Calm
Temperature: 50°F , 10°C
Dew Point: 50°F , 10°C
Humidity: 100%
Barometer: 30.15 inHg , 1021 hPa
Summary: Fog
Clouds: Overcast
Visibility: 1/4 mile , 0.4 km
Cloud details: Overcast 200 ft
2019/08/24 07:45 KAQW 240745Z AUTO 00000KT 1/4SM FG VV002 10/10 A3015 RMK AO2 T01000100
 
KGFL - Glens Falls, New York, USA
Distance from station: W 63mi, 101km
Updated: 08/24/2019 2:53am
Clear
Clear
 Wind from calm
Wind: Calm
Temperature: 52°F , 11°C
Dew Point: 46°F , 8°C
Humidity: 82%
Barometer: 30.14 inHg , 1020.7 hPa
Clouds: Clear
Visibility: 10 miles , 16 km
2019/08/24 06:53 KGFL 240653Z AUTO 00000KT 10SM CLR 11/08 A3014 RMK AO2 SLP205 T01110083
KFIT - Fitchburg, Massachusetts, USA
Distance from station: SSE 65mi, 105km
Updated: 08/24/2019 2:52am
Clear
Clear
 Wind from N
Wind: N 6 mph , 9 km/h
Temperature: 54°F , 12°C
Dew Point: 48°F , 9°C
Humidity: 82%
Barometer: 30.10 inHg , 1019.3 hPa
Clouds: Clear
Visibility: 10 miles , 16 km
2019/08/24 06:52 KFIT 240652Z AUTO 35005KT 10SM CLR 12/09 A3010 RMK AO2 SLP193 T01220094
KDAW - Rochester, New Hampshire, USA
Distance from station: E 73mi, 118km
Updated: 08/24/2019 2:51am
Clear
Clear
 Wind from NW
Wind: NW 6 mph , 9 km/h
Temperature: 55°F , 13°C
Dew Point: 48°F , 9°C
Humidity: 77%
Barometer: 30.07 inHg , 1018.3 hPa
Clouds: Clear
Visibility: 10 miles , 16 km
2019/08/24 06:51 KDAW 240651Z AUTO 31005KT 10SM CLR 13/09 A3007 RMK AO2 SLP178 T01280094
 
K1V4 - St. Johnsbury, Vermont, USA
Distance from station: NNE 74mi, 119km
Updated: 08/24/2019 2:54am

 
Temperature: 48°F , 9°C
Dew Point: 48°F , 9°C
Humidity: 100%
Barometer: 30.11 inHg , 1019.6 hPa
2019/08/24 06:54 K1V4 240654Z AUTO 09/09 A3011 RMK AO1 SLP194 T00940089
KLWM - Lawrence, Massachusetts, USA
Distance from station: SE 77mi, 124km
Updated: 08/24/2019 2:54am
Clear
Clear
 Wind from calm
Wind: Calm
Temperature: 57°F , 14°C
Dew Point: 50°F , 10°C
Humidity: 77%
Barometer: 30.09 inHg , 1019 hPa
Clouds: Clear
Visibility: 10 miles , 16 km
2019/08/24 06:54 KLWM 240654Z AUTO 00000KT 10SM CLR 14/10 A3009 RMK AO2 SLP190 T01390100



Flag Counter
free counter page views since 4/29/2009